createdAt,value
2023-04-19T00:02:26.852Z,73.52
2023-04-19T00:04:58.168Z,73.64
2023-04-19T00:07:26.533Z,73.32
2023-04-19T00:09:59.528Z,73.14
2023-04-19T00:12:30.631Z,73.14
2023-04-19T00:15:01.566Z,73.11
2023-04-19T00:17:30.071Z,73.36
2023-04-19T00:20:00.722Z,73.38
2023-04-19T00:22:28.828Z,73.18
2023-04-19T00:24:57.005Z,73.45
2023-04-19T00:27:27.672Z,73.67
2023-04-19T00:29:57.461Z,73.63
2023-04-19T00:32:27.075Z,73.65
2023-04-19T00:34:55.341Z,73.88
2023-04-19T00:37:23.676Z,74.02
2023-04-19T00:39:51.880Z,73.99
2023-04-19T00:42:20.000Z,73.44
2023-04-19T00:44:48.369Z,72.91
2023-04-19T00:47:16.896Z,73.09
2023-04-19T00:49:46.750Z,73.25
2023-04-19T00:52:14.920Z,73.24
2023-04-19T00:54:43.047Z,73.33
2023-04-19T00:57:11.222Z,73.49
2023-04-19T00:59:39.477Z,73.55
2023-04-19T01:02:09.893Z,73.32
2023-04-19T01:04:38.366Z,73.13
2023-04-19T01:07:07.681Z,73.08
2023-04-19T01:09:42.081Z,73.14
2023-04-19T01:12:12.768Z,73.35
2023-04-19T01:14:46.172Z,73.22
2023-04-19T01:17:14.441Z,73.07
2023-04-19T01:19:42.923Z,72.86
2023-04-19T01:22:16.892Z,72.94
2023-04-19T01:24:45.095Z,73.35
2023-04-19T01:27:14.254Z,73.71
2023-04-19T01:29:42.664Z,73.86
2023-04-19T01:32:13.054Z,74.07
2023-04-19T01:34:42.963Z,74.08
2023-04-19T01:37:11.100Z,74.11
2023-04-19T01:39:39.185Z,74.30
2023-04-19T01:42:08.854Z,74.59
2023-04-19T01:44:38.247Z,74.62
2023-04-19T01:47:06.585Z,74.54
2023-04-19T01:49:34.895Z,74.57
2023-04-19T01:52:03.018Z,74.37
2023-04-19T01:54:31.782Z,74.43
2023-04-19T01:56:59.932Z,74.40
2023-04-19T01:59:28.160Z,74.81
2023-04-19T02:01:56.857Z,75.02
2023-04-19T02:04:25.987Z,75.03
2023-04-19T02:06:54.116Z,74.88
2023-04-19T02:09:22.416Z,74.70
2023-04-19T02:11:50.759Z,74.83
2023-04-19T02:14:19.059Z,74.92
2023-04-19T02:16:47.175Z,74.67
2023-04-19T02:19:15.406Z,74.89
2023-04-19T02:21:46.195Z,74.86
2023-04-19T02:24:15.799Z,74.79
2023-04-19T02:26:46.510Z,74.88
2023-04-19T02:29:19.267Z,74.74
2023-04-19T02:31:47.431Z,74.74
2023-04-19T02:34:18.721Z,74.90
2023-04-19T02:36:47.154Z,74.66
2023-04-19T02:39:15.171Z,74.61
2023-04-19T02:41:43.389Z,74.60
2023-04-19T02:44:14.035Z,74.66
2023-04-19T02:46:50.876Z,74.34
2023-04-19T02:49:21.796Z,74.37
2023-04-19T02:51:51.153Z,74.67
2023-04-19T02:54:19.679Z,74.78
2023-04-19T02:56:48.148Z,74.91
2023-04-19T02:59:17.307Z,74.94
2023-04-19T03:01:51.138Z,74.93
2023-04-19T03:04:19.668Z,75.11
2023-04-19T03:06:47.956Z,75.33
2023-04-19T03:09:17.168Z,75.35
2023-04-19T03:11:45.295Z,75.27
2023-04-19T03:14:13.659Z,75.41
2023-04-19T03:16:42.172Z,75.56
2023-04-19T03:19:10.627Z,75.59
2023-04-19T03:21:48.437Z,75.61
2023-04-19T03:24:19.561Z,75.66
2023-04-19T03:26:51.342Z,75.46
2023-04-19T03:29:25.513Z,75.30
2023-04-19T03:32:00.796Z,75.18
2023-04-19T03:34:29.236Z,75.25
2023-04-19T03:36:57.414Z,75.40
2023-04-19T03:39:26.242Z,75.49
2023-04-19T03:41:58.319Z,75.52
2023-04-19T03:44:35.695Z,75.49
2023-04-19T03:47:05.440Z,75.54
2023-04-19T03:49:38.079Z,75.67
2023-04-19T03:52:06.754Z,75.49
2023-04-19T03:54:36.301Z,75.57
2023-04-19T03:57:05.028Z,75.35
2023-04-19T03:59:35.455Z,75.06
2023-04-19T04:02:04.614Z,75.23
2023-04-19T04:04:33.273Z,75.24
2023-04-19T04:07:02.558Z,75.31
2023-04-19T04:09:30.817Z,75.19
2023-04-19T04:11:59.089Z,74.94
2023-04-19T04:14:28.106Z,74.72
2023-04-19T04:16:56.184Z,74.67
2023-04-19T04:19:24.412Z,74.78
2023-04-19T04:21:52.558Z,74.59
2023-04-19T04:24:22.289Z,74.59
2023-04-19T04:27:21.075Z,74.70
2023-04-19T04:29:50.941Z,74.74
2023-04-19T04:32:23.328Z,74.84
2023-04-19T04:34:54.246Z,74.93
2023-04-19T04:37:29.903Z,75.01
2023-04-19T04:40:01.536Z,75.05
2023-04-19T04:42:31.545Z,74.96
2023-04-19T04:45:01.711Z,74.84
2023-04-19T04:47:34.579Z,74.92
2023-04-19T04:50:06.167Z,74.87
2023-04-19T04:52:34.587Z,74.96
2023-04-19T04:55:09.269Z,75.07
2023-04-19T04:57:39.330Z,74.92
2023-04-19T05:00:09.413Z,75.30
2023-04-19T05:02:43.906Z,75.99
2023-04-19T05:05:19.675Z,76.51
2023-04-19T05:07:47.919Z,76.54
2023-04-19T05:10:16.248Z,76.21
2023-04-19T05:12:48.759Z,75.98
2023-04-19T05:15:17.164Z,75.74
2023-04-19T05:17:49.686Z,75.85
2023-04-19T05:20:17.982Z,75.84
2023-04-19T05:22:46.945Z,75.68
2023-04-19T05:25:15.241Z,75.48
2023-04-19T05:27:43.520Z,75.42
2023-04-19T05:30:12.052Z,75.27
2023-04-19T05:32:43.020Z,74.91
2023-04-19T05:35:12.341Z,75.05
2023-04-19T05:37:41.788Z,75.05
2023-04-19T05:40:10.512Z,74.92
2023-04-19T05:42:39.152Z,74.66
2023-04-19T05:45:08.076Z,74.46
2023-04-19T05:47:36.684Z,74.43
2023-04-19T05:50:34.830Z,74.34
2023-04-19T05:53:20.051Z,74.17
2023-04-19T05:55:49.543Z,73.88
2023-04-19T05:58:18.631Z,73.67
2023-04-19T06:00:46.898Z,73.41
2023-04-19T06:03:15.364Z,73.37
2023-04-19T06:05:43.944Z,73.53
2023-04-19T06:08:17.076Z,73.57
2023-04-19T06:10:54.506Z,73.61
2023-04-19T06:13:26.214Z,73.63
2023-04-19T06:15:54.940Z,73.35
2023-04-19T06:18:23.228Z,73.32
2023-04-19T06:20:53.303Z,73.43
2023-04-19T06:23:21.520Z,73.59
2023-04-19T06:25:49.653Z,73.27
2023-04-19T06:28:18.504Z,73.10
2023-04-19T06:30:46.713Z,72.94
2023-04-19T06:33:14.962Z,72.82
2023-04-19T06:35:43.224Z,72.96
2023-04-19T06:38:11.313Z,73.15
2023-04-19T06:40:39.546Z,72.53
2023-04-19T06:43:08.349Z,72.24
2023-04-19T06:45:36.934Z,72.13
2023-04-19T06:48:08.062Z,72.40
2023-04-19T06:50:36.292Z,72.62
2023-04-19T06:53:05.939Z,72.79
2023-04-19T06:55:34.243Z,72.94
2023-04-19T06:58:02.403Z,72.46
2023-04-19T07:00:31.011Z,71.09
2023-04-19T07:03:00.630Z,70.94
2023-04-19T07:05:30.077Z,71.29
2023-04-19T07:07:58.530Z,71.82
2023-04-19T07:10:26.695Z,71.68
2023-04-19T07:12:55.935Z,71.61
2023-04-19T07:15:24.156Z,71.39
2023-04-19T07:17:53.029Z,71.79
2023-04-19T07:20:22.545Z,71.07
2023-04-19T07:22:53.918Z,70.43
2023-04-19T07:25:24.713Z,70.74
2023-04-19T07:27:54.322Z,71.13
2023-04-19T07:30:23.003Z,71.03
2023-04-19T07:32:52.047Z,71.18
2023-04-19T07:35:21.240Z,71.27
2023-04-19T07:37:52.487Z,71.56
2023-04-19T07:40:20.715Z,71.40
2023-04-19T07:42:51.408Z,71.51
2023-04-19T07:45:19.620Z,71.58
2023-04-19T07:47:48.167Z,72.10
2023-04-19T07:50:16.275Z,72.43
2023-04-19T07:52:44.845Z,72.23
2023-04-19T07:55:13.072Z,71.87
2023-04-19T07:57:46.150Z,71.55
2023-04-19T08:00:17.472Z,71.62
2023-04-19T08:03:01.773Z,72.09
2023-04-19T08:05:31.950Z,72.18
2023-04-19T08:08:00.464Z,72.17
2023-04-19T08:10:32.885Z,71.90
2023-04-19T08:13:05.041Z,71.49
2023-04-19T08:18:07.142Z,71.09
2023-04-19T08:20:56.211Z,71.43
2023-04-19T08:23:34.692Z,71.32
2023-04-19T08:26:16.584Z,70.81
2023-04-19T08:28:44.954Z,71.01
2023-04-19T08:31:13.018Z,71.45
2023-04-19T08:33:41.242Z,71.54
2023-04-19T08:36:10.562Z,70.84
2023-04-19T08:38:39.589Z,70.89
2023-04-19T08:41:07.708Z,70.56
2023-04-19T08:43:35.978Z,70.47
2023-04-19T08:46:04.772Z,70.64
2023-04-19T08:48:34.872Z,70.25
2023-04-19T08:51:05.591Z,69.74
2023-04-19T08:53:35.048Z,69.16
2023-04-19T08:58:54.724Z,68.77
2023-04-19T09:01:35.345Z,69.04
2023-04-19T09:04:34.587Z,67.51
2023-04-19T09:07:03.934Z,68.41
2023-04-19T09:09:40.718Z,68.90
2023-04-19T09:12:20.282Z,67.59
2023-04-19T09:15:01.223Z,66.25
2023-04-19T09:17:31.352Z,66.98
2023-04-19T09:19:59.723Z,67.31
2023-04-19T09:22:28.193Z,67.15
2023-04-19T09:27:33.985Z,66.93
2023-04-19T09:30:04.943Z,66.16
2023-04-19T09:32:47.413Z,66.21
2023-04-19T09:35:15.873Z,66.52
2023-04-19T09:38:06.056Z,66.46
2023-04-19T09:40:35.428Z,66.36
2023-04-19T09:45:42.382Z,66.28
2023-04-19T09:48:11.239Z,65.47
2023-04-19T09:51:00.131Z,65.30
2023-04-19T09:53:35.297Z,65.11
2023-04-19T09:56:06.267Z,65.09
2023-04-19T09:58:48.976Z,65.43
2023-04-19T10:01:21.142Z,65.38
2023-04-19T10:03:50.153Z,65.03
2023-04-19T10:08:50.494Z,63.74
2023-04-19T10:11:26.998Z,63.92
2023-04-19T10:13:57.248Z,63.66
2023-04-19T10:16:25.730Z,62.78
2023-04-19T10:18:53.893Z,62.75
2023-04-19T10:21:22.280Z,62.61
2023-04-19T10:23:50.649Z,60.35
2023-04-19T10:26:18.856Z,60.45
2023-04-19T10:28:48.062Z,60.87
2023-04-19T10:33:05.040Z,61.69
2023-04-19T10:35:37.891Z,60.72
2023-04-19T10:38:13.309Z,61.26
2023-04-19T10:40:51.480Z,61.67
2023-04-19T10:43:20.758Z,61.78
2023-04-19T10:45:49.019Z,60.76
2023-04-19T10:48:26.668Z,60.20
2023-04-19T10:51:21.169Z,61.02
2023-04-19T10:53:53.852Z,61.57
2023-04-19T10:56:34.596Z,60.92
2023-04-19T10:59:08.566Z,61.51
2023-04-19T11:01:41.034Z,61.77
2023-04-19T11:04:10.126Z,61.76
2023-04-19T11:07:01.714Z,61.59
2023-04-19T11:09:42.464Z,61.71
2023-04-19T11:12:21.156Z,61.31
2023-04-19T11:14:53.638Z,61.89
2023-04-19T11:17:26.009Z,61.83
2023-04-19T11:20:08.717Z,61.74
2023-04-19T11:22:39.615Z,61.38
2023-04-19T11:25:12.384Z,61.70
2023-04-19T11:27:41.555Z,61.96
2023-04-19T11:30:18.185Z,61.57
2023-04-19T11:32:52.372Z,61.56
2023-04-19T11:35:22.471Z,61.74
2023-04-19T11:37:51.111Z,62.53
2023-04-19T11:40:20.318Z,62.52
2023-04-19T11:42:55.864Z,61.99
2023-04-19T11:45:31.650Z,61.72
2023-04-19T11:48:02.406Z,61.36
2023-04-19T11:50:38.599Z,61.26
2023-04-19T11:53:24.364Z,61.48
2023-04-19T11:55:54.605Z,61.80
2023-04-19T11:58:37.162Z,62.34
2023-04-19T12:01:06.868Z,63.09
2023-04-19T12:03:50.782Z,62.72
2023-04-19T12:06:24.530Z,61.93
2023-04-19T12:08:53.500Z,61.85
2023-04-19T12:11:26.899Z,61.61
2023-04-19T12:14:15.640Z,61.67
2023-04-19T12:16:45.262Z,62.46
2023-04-19T12:19:15.217Z,62.84
2023-04-19T12:21:43.826Z,63.51
2023-04-19T12:24:12.553Z,62.13
2023-04-19T12:26:57.172Z,61.99
2023-04-19T12:29:25.649Z,61.36
2023-04-19T12:31:54.111Z,61.58
2023-04-19T12:34:22.483Z,61.80
2023-04-19T12:36:51.331Z,61.60
2023-04-19T12:39:19.738Z,61.97
2023-04-19T12:41:49.052Z,62.39
2023-04-19T12:44:17.564Z,62.90
2023-04-19T12:46:45.944Z,62.05
2023-04-19T12:49:14.432Z,61.36
2023-04-19T12:51:43.208Z,61.76
2023-04-19T12:54:11.396Z,61.35
2023-04-19T12:56:39.786Z,61.38
2023-04-19T12:59:08.686Z,61.76
2023-04-19T13:01:37.295Z,61.16
2023-04-19T13:04:05.800Z,61.23
2023-04-19T13:06:35.024Z,62.10
2023-04-19T13:09:13.619Z,62.38
2023-04-19T13:11:43.043Z,62.26
2023-04-19T13:14:11.259Z,62.16
2023-04-19T13:16:39.695Z,62.28
2023-04-19T13:19:07.986Z,62.31
2023-04-19T13:21:37.266Z,61.65
2023-04-19T13:24:05.809Z,61.95
2023-04-19T13:26:34.775Z,62.32
2023-04-19T13:29:03.492Z,62.21
2023-04-19T13:31:33.357Z,60.96
2023-04-19T13:34:01.674Z,60.84
2023-04-19T13:36:30.111Z,61.13
2023-04-19T13:38:58.555Z,61.44
2023-04-19T13:41:27.073Z,61.60
2023-04-19T13:43:55.470Z,61.74
2023-04-19T13:46:24.055Z,60.38
2023-04-19T13:48:52.534Z,60.43
2023-04-19T13:51:20.692Z,60.90
2023-04-19T13:53:48.867Z,61.13
2023-04-19T13:56:17.140Z,61.33
2023-04-19T13:58:45.554Z,60.80
2023-04-19T14:01:16.054Z,61.30
2023-04-19T14:03:44.819Z,61.27
2023-04-19T14:06:13.292Z,61.25
2023-04-19T14:08:41.638Z,61.29
2023-04-19T14:11:11.054Z,60.73
2023-04-19T14:13:39.667Z,60.94
2023-04-19T14:16:08.386Z,60.74
2023-04-19T14:18:37.152Z,60.45
2023-04-19T14:21:05.772Z,60.31
2023-04-19T14:23:34.668Z,60.74
2023-04-19T14:26:05.412Z,60.39
2023-04-19T14:28:34.020Z,60.32
2023-04-19T14:31:02.186Z,60.55
2023-04-19T14:33:33.798Z,61.04
2023-04-19T14:36:03.288Z,61.02
2023-04-19T14:38:33.727Z,61.42
2023-04-19T14:41:04.499Z,61.53
2023-04-19T14:43:33.492Z,61.47
2023-04-19T14:46:01.865Z,61.56
2023-04-19T14:48:30.283Z,62.05
2023-04-19T14:50:58.382Z,62.29
2023-04-19T14:53:26.767Z,62.04
2023-04-19T14:55:54.879Z,62.17
2023-04-19T14:58:23.686Z,62.19
2023-04-19T15:00:52.277Z,62.16
2023-04-19T15:03:20.650Z,62.63
2023-04-19T15:05:49.179Z,62.97
2023-04-19T15:08:29.556Z,62.98
2023-04-19T15:10:58.749Z,63.18
2023-04-19T15:13:27.304Z,62.93
2023-04-19T15:15:56.111Z,63.21
2023-04-19T15:18:24.319Z,63.13
2023-04-19T15:20:52.698Z,63.43
2023-04-19T15:23:24.359Z,63.53
2023-04-19T15:25:54.755Z,63.38
2023-04-19T15:28:24.086Z,63.53
2023-04-19T15:31:06.549Z,63.80
2023-04-19T15:33:35.539Z,64.27
2023-04-19T15:36:04.316Z,64.63
2023-04-19T15:38:32.995Z,64.88
2023-04-19T15:41:02.183Z,64.97
2023-04-19T15:43:32.178Z,64.72
2023-04-19T15:46:00.685Z,64.60
2023-04-19T15:48:29.795Z,64.61
2023-04-19T15:50:57.959Z,64.12
2023-04-19T15:53:26.665Z,64.20
2023-04-19T15:55:55.952Z,64.37
2023-04-19T15:58:25.009Z,64.69
2023-04-19T16:00:53.450Z,64.65
2023-04-19T16:06:07.310Z,64.70
2023-04-19T16:08:35.582Z,64.97
2023-04-19T16:11:05.643Z,65.10
2023-04-19T16:13:33.811Z,64.95
2023-04-19T16:16:02.120Z,65.12
2023-04-19T16:18:30.681Z,65.46
2023-04-19T16:20:58.816Z,65.38
2023-04-19T16:23:27.183Z,65.03
2023-04-19T16:25:56.832Z,65.17
2023-04-19T16:28:25.372Z,65.58
2023-04-19T16:30:54.397Z,65.90
2023-04-19T16:33:27.649Z,65.78
2023-04-19T16:36:00.613Z,65.55
2023-04-19T16:38:29.242Z,65.53
2023-04-19T16:40:59.233Z,65.31
2023-04-19T16:43:28.334Z,65.34
2023-04-19T16:45:56.952Z,65.51
2023-04-19T16:48:26.363Z,65.59
2023-04-19T16:50:54.474Z,65.40
2023-04-19T16:53:23.245Z,65.46
2023-04-19T16:55:56.533Z,65.73
2023-04-19T16:58:26.034Z,66.05
2023-04-19T17:00:58.459Z,66.18
2023-04-19T17:03:28.791Z,66.11
2023-04-19T17:05:57.989Z,66.12
2023-04-19T17:08:28.795Z,66.01
2023-04-19T17:10:59.551Z,66.13
2023-04-19T17:13:29.137Z,66.14
2023-04-19T17:16:09.027Z,66.16
2023-04-19T17:31:24.184Z,66.21
2023-04-19T17:34:54.504Z,66.37
2023-04-19T17:37:49.636Z,66.31
2023-04-19T17:40:39.088Z,66.42
2023-04-19T17:43:07.690Z,66.60
2023-04-19T17:45:47.734Z,66.59
2023-04-19T17:48:26.221Z,66.47
2023-04-19T17:51:00.499Z,66.51
2023-04-19T17:53:41.174Z,66.68
2023-04-19T17:56:14.158Z,66.53
2023-04-19T17:58:42.348Z,66.59
2023-04-19T18:01:11.354Z,66.81
2023-04-19T18:03:40.380Z,66.76
2023-04-19T18:06:10.022Z,66.81
2023-04-19T18:08:38.544Z,66.71
2023-04-19T18:11:07.695Z,66.66
2023-04-19T18:20:20.429Z,67.09
2023-04-19T18:22:54.165Z,66.94
2023-04-19T18:25:23.131Z,67.20
2023-04-19T18:27:51.357Z,67.14
2023-04-19T18:30:19.671Z,67.31
2023-04-19T18:32:48.318Z,67.26
2023-04-19T18:35:17.780Z,66.97
2023-04-19T18:37:46.699Z,66.86
2023-04-19T18:40:16.162Z,66.85
2023-04-19T18:42:44.451Z,66.78
2023-04-19T18:45:12.966Z,66.74
2023-04-19T18:47:42.326Z,66.80
2023-04-19T18:50:12.182Z,67.01
2023-04-19T18:52:42.093Z,67.08
2023-04-19T18:55:12.256Z,67.05
2023-04-19T18:57:43.214Z,67.02
2023-04-19T19:00:11.794Z,67.11
2023-04-19T19:02:49.701Z,67.17
2023-04-19T19:05:18.136Z,67.12
2023-04-19T19:07:47.369Z,67.27
2023-04-19T19:10:21.885Z,67.56
2023-04-19T19:12:53.814Z,67.63
2023-04-19T19:15:22.333Z,67.72
2023-04-19T19:17:51.014Z,67.63
2023-04-19T19:20:19.888Z,67.58
2023-04-19T19:22:53.074Z,67.59
2023-04-19T19:25:21.555Z,67.55
2023-04-19T19:28:06.375Z,67.78
2023-04-19T19:30:40.242Z,67.74
2023-04-19T19:33:08.630Z,67.89
2023-04-19T19:35:37.028Z,67.81
2023-04-19T19:38:06.473Z,67.95
2023-04-19T19:40:46.321Z,67.99
2023-04-19T19:43:24.088Z,67.92
2023-04-19T19:45:52.243Z,67.95
2023-04-19T19:48:20.610Z,67.91
2023-04-19T19:51:17.273Z,67.75
2023-04-19T19:53:36.917Z,67.84
2023-04-19T19:56:13.070Z,67.79
2023-04-19T19:58:50.325Z,67.84
2023-04-19T20:01:22.511Z,67.69
2023-04-19T20:03:55.050Z,67.46
2023-04-19T20:08:57.449Z,67.79
2023-04-19T20:11:25.845Z,67.81
2023-04-19T20:13:54.490Z,67.72
2023-04-19T20:16:25.133Z,67.83
2023-04-19T20:18:55.136Z,67.89
2023-04-19T20:21:24.105Z,67.90
2023-04-19T20:23:54.099Z,67.97
2023-04-19T20:26:22.423Z,67.94
2023-04-19T20:28:51.472Z,68.12
2023-04-19T20:31:19.545Z,68.16
2023-04-19T20:33:47.858Z,68.20
2023-04-19T20:36:16.572Z,68.40
2023-04-19T20:38:47.930Z,68.70
2023-04-19T20:41:16.488Z,69.22
2023-04-19T20:43:50.609Z,69.59
2023-04-19T20:46:20.043Z,69.92
2023-04-19T20:48:48.369Z,70.32
2023-04-19T20:51:17.740Z,70.67
2023-04-19T20:53:47.492Z,71.06
2023-04-19T20:56:15.562Z,71.20
2023-04-19T20:58:49.952Z,71.27
2023-04-19T21:01:18.501Z,71.63
2023-04-19T21:03:50.115Z,71.96
2023-04-19T21:06:28.372Z,72.32
2023-04-19T21:08:57.692Z,72.51
2023-04-19T21:11:25.814Z,72.60
2023-04-19T21:13:55.305Z,72.63
2023-04-19T21:16:23.822Z,72.83
2023-04-19T21:18:53.529Z,73.04
2023-04-19T21:21:22.157Z,73.21
2023-04-19T21:23:50.776Z,73.68
2023-04-19T21:26:18.930Z,73.77
2023-04-19T21:28:47.168Z,73.97
2023-04-19T21:31:15.363Z,73.96
2023-04-19T21:33:44.713Z,74.10
2023-04-19T21:36:13.321Z,74.13
2023-04-19T21:38:42.402Z,74.32
2023-04-19T21:41:10.994Z,74.32
2023-04-19T21:43:39.297Z,74.48
2023-04-19T21:46:07.704Z,74.57
2023-04-19T21:48:36.429Z,74.64
2023-04-19T21:51:04.905Z,74.85
2023-04-19T21:53:33.306Z,75.08
2023-04-19T21:56:03.049Z,75.36
2023-04-19T21:58:31.642Z,75.34
2023-04-19T22:00:59.884Z,75.53
2023-04-19T22:03:28.419Z,75.68
2023-04-19T22:06:01.968Z,75.71
2023-04-19T22:08:32.768Z,75.94
2023-04-19T22:11:03.712Z,76.03
2023-04-19T22:13:33.602Z,76.05
2023-04-19T22:16:02.552Z,76.14
2023-04-19T22:18:31.456Z,76.39
2023-04-19T22:20:59.857Z,76.58
2023-04-19T22:23:27.987Z,76.68
2023-04-19T22:25:56.128Z,76.71
2023-04-19T22:28:24.537Z,76.83
2023-04-19T22:30:52.823Z,76.89
2023-04-19T22:33:22.090Z,76.94
2023-04-19T22:35:50.367Z,77.13
2023-04-19T22:38:19.172Z,77.07
2023-04-19T22:40:47.428Z,77.09
2023-04-19T22:43:16.391Z,77.22
2023-04-19T22:45:47.881Z,77.22
2023-04-19T22:50:44.618Z,77.42
2023-04-19T22:53:13.284Z,77.34
2023-04-19T22:55:42.233Z,77.52
2023-04-19T22:58:10.459Z,77.64
2023-04-19T23:00:40.867Z,77.82
2023-04-19T23:03:11.477Z,77.87
2023-04-19T23:05:41.774Z,77.74
2023-04-19T23:08:10.011Z,77.92
2023-04-19T23:10:38.379Z,78.03
2023-04-19T23:13:07.058Z,78.26
2023-04-19T23:15:35.581Z,78.40
2023-04-19T23:18:04.399Z,78.47
2023-04-19T23:20:33.488Z,78.46
2023-04-19T23:23:01.791Z,78.61
2023-04-19T23:25:30.461Z,78.76
2023-04-19T23:27:58.548Z,78.95
2023-04-19T23:30:26.760Z,78.89
2023-04-19T23:32:55.044Z,78.97
2023-04-19T23:35:23.417Z,79.01
2023-04-19T23:37:51.535Z,79.10
2023-04-19T23:40:20.214Z,79.01
2023-04-19T23:42:48.331Z,78.83
2023-04-19T23:45:16.535Z,78.80
2023-04-19T23:47:44.669Z,78.85
2023-04-19T23:50:12.918Z,78.95
2023-04-19T23:52:41.385Z,79.01
2023-04-19T23:55:09.719Z,78.74
2023-04-19T23:57:37.971Z,78.77
